Time;durP1;ratioP1;P1;durP2;ratioP2;P2;SDS_P1;SDS_P2;PMS_P1;PMS_P2;Temp;Humidity;BMP_temperature;BMP_pressure;BME280_temperature;BME280_humidity;BME280_pressure;Samples;Min_cycle;Max_cycle;Signal;HPM_P1;HPM_P2
2023/08/07 00:00:50;;;;;;;0.77;0.77;;;14.80;99.90;;;;;;5039159;28;20207;-85
2023/08/07 00:03:18;;;;;;;0.63;0.63;;;14.80;99.90;;;;;;5038365;28;20704;-83
2023/08/07 00:05:47;;;;;;;0.90;0.50;;;14.70;99.90;;;;;;5037408;28;20533;-85
2023/08/07 00:08:15;;;;;;;0.80;0.80;;;14.80;99.90;;;;;;5042950;28;20198;-83
2023/08/07 00:10:41;;;;;;;0.43;0.43;;;14.80;99.90;;;;;;5045466;28;20212;-79
2023/08/07 00:13:06;;;;;;;0.47;0.47;;;14.80;99.90;;;;;;5048396;28;20180;-77
2023/08/07 00:15:35;;;;;;;2.37;0.60;;;14.80;99.90;;;;;;5032700;28;20180;-75
2023/08/07 00:18:01;;;;;;;3.00;0.30;;;14.70;99.90;;;;;;5058864;28;20176;-80
2023/08/07 00:20:29;;;;;;;0.53;0.53;;;14.60;99.90;;;;;;5058604;28;20169;-77
2023/08/07 00:22:55;;;;;;;2.37;0.40;;;14.70;99.90;;;;;;5058831;28;20228;-81
2023/08/07 00:25:21;;;;;;;0.30;0.30;;;14.70;99.90;;;;;;5059061;28;20152;-78
2023/08/07 00:27:47;;;;;;;0.90;0.40;;;14.70;99.90;;;;;;5057101;28;20207;-76
2023/08/07 00:30:12;;;;;;;0.50;0.50;;;14.70;99.90;;;;;;5055488;28;20183;-79
2023/08/07 00:32:38;;;;;;;0.73;0.43;;;14.70;99.90;;;;;;5058566;28;20195;-81
2023/08/07 00:35:05;;;;;;;0.37;0.37;;;14.60;99.90;;;;;;5058828;28;20218;-79
2023/08/07 00:37:31;;;;;;;0.50;0.50;;;14.60;99.90;;;;;;5058983;28;20165;-79
2023/08/07 00:39:57;;;;;;;0.30;0.30;;;14.60;99.90;;;;;;5054319;28;20180;-80
2023/08/07 00:42:23;;;;;;;0.40;0.40;;;14.40;99.90;;;;;;5058670;28;20177;-77
2023/08/07 00:44:48;;;;;;;0.90;0.90;;;14.40;99.90;;;;;;5041910;28;20192;-78
2023/08/07 00:47:14;;;;;;;0.60;0.60;;;14.30;99.90;;;;;;5056454;28;20311;-76
2023/08/07 00:49:42;;;;;;;1.03;0.60;;;14.30;99.90;;;;;;5053989;28;20182;-76
2023/08/07 00:52:08;;;;;;;1.20;0.73;;;14.30;99.90;;;;;;5050898;28;20232;-78
2023/08/07 00:54:34;;;;;;;0.50;0.50;;;14.40;99.90;;;;;;5057645;28;20200;-81
2023/08/07 00:57:15;;;;;;;2.63;1.87;;;14.30;99.90;;;;;;5054300;28;20258;-77
2023/08/07 00:59:42;;;;;;;0.43;0.43;;;14.40;99.90;;;;;;5031248;28;20176;-79
2023/08/07 01:02:09;;;;;;;0.20;0.20;;;14.40;99.90;;;;;;5049560;28;20175;-79
2023/08/07 01:04:36;;;;;;;0.87;0.80;;;14.30;99.90;;;;;;5053981;28;20156;-78
2023/08/07 01:07:02;;;;;;;0.90;0.90;;;14.30;99.90;;;;;;5028423;28;20203;-79
2023/08/07 01:09:28;;;;;;;0.60;0.60;;;14.20;99.90;;;;;;5046584;28;20165;-82
2023/08/07 01:12:14;;;;;;;0.60;0.60;;;14.20;99.90;;;;;;5045034;28;20634;-82
2023/08/07 01:15:02;;;;;;;1.17;0.57;;;14.20;99.90;;;;;;5021855;28;20215;-80
2023/08/07 01:17:29;;;;;;;0.50;0.50;;;14.10;99.90;;;;;;5039309;28;20230;-86
2023/08/07 01:19:56;;;;;;;0.50;0.50;;;14.10;99.90;;;;;;5039558;28;20172;-86
2023/08/07 01:22:22;;;;;;;0.80;0.80;;;14.10;99.90;;;;;;5038869;28;20651;-79
2023/08/07 01:24:50;;;;;;;0.60;0.60;;;14.10;99.90;;;;;;5038805;28;20168;-83
2023/08/07 01:27:31;;;;;;;1.90;0.93;;;13.90;99.90;;;;;;5022632;28;20211;-81
2023/08/07 01:30:16;;;;;;;0.70;0.70;;;13.90;99.90;;;;;;5040284;28;20205;-85
2023/08/07 01:33:17;;;;;;;0.80;0.80;;;13.90;99.90;;;;;;5039131;28;20251;-80
2023/08/07 01:35:53;;;;;;;1.70;0.90;;;13.80;99.90;;;;;;5040517;28;20178;-84
2023/08/07 01:38:24;;;;;;;0.73;0.73;;;13.80;99.90;;;;;;5041883;28;20157;-80
2023/08/07 01:40:51;;;;;;;0.80;0.80;;;13.90;99.90;;;;;;5023951;28;20624;-81
2023/08/07 01:43:18;;;;;;;0.70;0.70;;;13.90;99.90;;;;;;5039737;28;20180;-82
2023/08/07 01:45:45;;;;;;;0.50;0.50;;;13.80;99.90;;;;;;5036448;28;20220;-81
2023/08/07 01:48:11;;;;;;;0.60;0.60;;;13.70;99.90;;;;;;5036376;28;20168;-78
2023/08/07 01:50:38;;;;;;;0.50;0.50;;;13.70;99.90;;;;;;5053291;28;20173;-81
2023/08/07 01:53:05;;;;;;;0.60;0.60;;;13.70;99.90;;;;;;5038267;28;20176;-80
2023/08/07 01:55:31;;;;;;;0.47;0.47;;;13.60;99.90;;;;;;5035524;28;20242;-80
2023/08/07 01:57:56;;;;;;;0.50;0.50;;;13.50;99.90;;;;;;5036085;28;20636;-83
2023/08/07 02:00:25;;;;;;;0.43;0.40;;;13.50;99.90;;;;;;5019441;28;20317;-85
2023/08/07 02:02:51;;;;;;;0.40;0.40;;;13.40;99.90;;;;;;5050905;28;20177;-79
2023/08/07 02:05:16;;;;;;;1.77;0.60;;;13.40;99.90;;;;;;5031332;28;20164;-82
2023/08/07 02:07:43;;;;;;;0.50;0.50;;;13.40;99.90;;;;;;5026305;28;20545;-82
2023/08/07 02:10:10;;;;;;;1.57;0.30;;;13.40;99.90;;;;;;5024881;28;20180;-80
2023/08/07 02:12:37;;;;;;;0.73;0.60;;;13.20;99.90;;;;;;5032153;28;20204;-83
2023/08/07 02:15:04;;;;;;;0.40;0.40;;;13.20;99.90;;;;;;5051596;28;20212;-85
2023/08/07 02:17:30;;;;;;;0.40;0.40;;;13.10;99.90;;;;;;5026250;28;20780;-83
2023/08/07 02:19:57;;;;;;;0.63;0.57;;;13.10;99.90;;;;;;5030146;28;20189;-85
2023/08/07 02:22:23;;;;;;;0.57;0.57;;;13.10;99.90;;;;;;5030328;28;20178;-77
2023/08/07 02:24:49;;;;;;;0.40;0.40;;;13.10;99.90;;;;;;5035689;28;20190;-76
2023/08/07 02:27:15;;;;;;;1.07;0.60;;;13.10;99.90;;;;;;5053089;28;20208;-81
2023/08/07 02:29:41;;;;;;;2.63;0.40;;;13.00;99.90;;;;;;5024574;28;20284;-83
2023/08/07 02:32:11;;;;;;;0.83;0.57;;;12.90;99.90;;;;;;5043578;28;20177;-81
2023/08/07 02:34:37;;;;;;;1.17;0.80;;;12.90;99.90;;;;;;5057775;28;20195;-79
2023/08/07 02:37:03;;;;;;;0.30;0.30;;;12.90;99.90;;;;;;5054558;28;20165;-83
2023/08/07 02:39:28;;;;;;;0.23;0.23;;;12.90;99.90;;;;;;5040339;28;20195;-80
2023/08/07 02:41:55;;;;;;;0.57;0.40;;;12.90;99.90;;;;;;5004932;28;20226;-84
2023/08/07 02:44:22;;;;;;;0.40;0.40;;;12.90;99.90;;;;;;5043239;28;20180;-85
2023/08/07 02:46:48;;;;;;;0.40;0.40;;;12.90;99.90;;;;;;5025028;28;20232;-79
2023/08/07 02:49:14;;;;;;;2.13;0.60;;;12.80;99.90;;;;;;5042692;28;20180;-80
2023/08/07 02:51:40;;;;;;;0.43;0.43;;;12.80;99.90;;;;;;5042876;28;20572;-81
2023/08/07 02:54:06;;;;;;;0.40;0.40;;;12.70;99.90;;;;;;5042318;28;20212;-81
2023/08/07 02:56:32;;;;;;;0.60;0.60;;;12.60;99.90;;;;;;5042678;28;20194;-81
2023/08/07 02:58:59;;;;;;;2.70;0.57;;;12.60;99.90;;;;;;5042138;28;20339;-82
2023/08/07 03:01:27;;;;;;;0.67;0.67;;;12.60;99.90;;;;;;5025223;28;20551;-82
2023/08/07 03:03:53;;;;;;;0.53;0.53;;;12.60;99.90;;;;;;5024670;28;20599;-86
2023/08/07 03:06:19;;;;;;;0.83;0.70;;;12.50;99.90;;;;;;5042519;28;20176;-79
2023/08/07 03:08:45;;;;;;;0.40;0.40;;;12.60;99.90;;;;;;5042238;28;20193;-79
2023/08/07 03:11:10;;;;;;;0.67;0.67;;;12.50;99.90;;;;;;5041682;28;20180;-83
2023/08/07 03:13:37;;;;;;;0.50;0.50;;;12.50;99.90;;;;;;5042023;28;20267;-81
2023/08/07 03:16:05;;;;;;;0.80;0.50;;;12.40;99.90;;;;;;5042673;28;20187;-82
2023/08/07 03:18:32;;;;;;;0.87;0.67;;;12.30;99.90;;;;;;5041970;28;20183;-81
2023/08/07 03:20:58;;;;;;;0.50;0.50;;;12.40;99.90;;;;;;5041959;28;20568;-79
2023/08/07 03:23:26;;;;;;;0.67;0.60;;;12.40;99.90;;;;;;5042833;28;20178;-83
2023/08/07 03:26:13;;;;;;;0.83;0.60;;;12.50;99.90;;;;;;5045254;28;20188;-78
2023/08/07 03:28:41;;;;;;;0.77;0.77;;;12.50;99.90;;;;;;5033736;28;20177;-81
2023/08/07 03:31:07;;;;;;;0.60;0.60;;;12.60;99.90;;;;;;5025288;28;20231;-78
2023/08/07 03:33:33;;;;;;;0.70;0.70;;;12.50;99.90;;;;;;5023813;28;20205;-78
2023/08/07 03:35:59;;;;;;;0.77;0.77;;;12.40;99.90;;;;;;5028271;28;20190;-80
2023/08/07 03:38:25;;;;;;;0.40;0.40;;;12.50;99.90;;;;;;5037482;28;20174;-81
2023/08/07 03:40:51;;;;;;;0.47;0.47;;;12.50;99.90;;;;;;5047990;28;20172;-78
2023/08/07 03:43:17;;;;;;;1.50;0.83;;;12.50;99.90;;;;;;5042728;28;20172;-84
2023/08/07 03:45:43;;;;;;;0.77;0.77;;;12.40;99.90;;;;;;5042537;28;20224;-80
2023/08/07 03:48:08;;;;;;;0.60;0.60;;;12.40;99.90;;;;;;5030125;28;20192;-78
2023/08/07 03:50:36;;;;;;;0.60;0.60;;;12.50;99.90;;;;;;5049442;28;20191;-81
2023/08/07 03:53:03;;;;;;;0.70;0.70;;;12.50;99.90;;;;;;5042674;28;20175;-78
2023/08/07 03:55:28;;;;;;;0.70;0.70;;;12.50;99.90;;;;;;5051709;28;20180;-76
2023/08/07 03:57:55;;;;;;;1.50;0.77;;;12.60;99.90;;;;;;5050305;28;20258;-81
2023/08/07 04:00:21;;;;;;;0.73;0.73;;;12.60;99.90;;;;;;5042010;28;20259;-81
2023/08/07 04:02:47;;;;;;;0.60;0.60;;;12.60;99.90;;;;;;5024289;28;20213;-83
2023/08/07 04:05:13;;;;;;;0.70;0.70;;;12.60;99.90;;;;;;5042478;28;20185;-83
2023/08/07 04:07:39;;;;;;;0.43;0.43;;;12.60;99.90;;;;;;5042720;28;20206;-81
2023/08/07 04:10:05;;;;;;;1.90;1.17;;;12.70;99.90;;;;;;5042656;28;20176;-84
2023/08/07 04:12:32;;;;;;;4.10;0.97;;;12.70;99.90;;;;;;5053248;28;20167;-81
2023/08/07 04:14:58;;;;;;;0.50;0.50;;;12.80;99.90;;;;;;5059802;28;20204;-77
2023/08/07 04:17:24;;;;;;;0.97;0.97;;;12.70;99.90;;;;;;5053734;28;20180;-83
2023/08/07 04:19:50;;;;;;;0.77;0.77;;;12.70;99.90;;;;;;5042606;28;20509;-82
2023/08/07 04:22:16;;;;;;;0.67;0.67;;;12.70;99.90;;;;;;5040197;28;20169;-83
2023/08/07 04:24:41;;;;;;;1.23;1.10;;;12.60;99.90;;;;;;5041796;28;20179;-85
2023/08/07 04:27:08;;;;;;;0.77;0.70;;;12.60;99.90;;;;;;5023418;28;20204;-82
2023/08/07 04:29:34;;;;;;;0.63;0.57;;;12.70;99.90;;;;;;5040605;28;20709;-82
2023/08/07 04:31:59;;;;;;;1.37;1.00;;;12.70;99.90;;;;;;5048768;28;20174;-79
2023/08/07 04:34:25;;;;;;;0.70;0.70;;;12.70;99.90;;;;;;5044563;28;20224;-81
2023/08/07 04:36:53;;;;;;;1.23;0.77;;;12.70;99.90;;;;;;5023297;28;20543;-80
2023/08/07 04:39:21;;;;;;;1.67;0.50;;;12.70;99.90;;;;;;5040344;28;20207;-79
2023/08/07 04:41:47;;;;;;;0.80;0.80;;;12.80;99.90;;;;;;5023529;28;20172;-84
2023/08/07 04:44:13;;;;;;;0.70;0.70;;;12.70;99.90;;;;;;5039743;28;20185;-79
2023/08/07 04:46:39;;;;;;;1.83;0.90;;;12.80;99.90;;;;;;5038797;28;20235;-83
2023/08/07 04:49:06;;;;;;;1.77;0.70;;;12.80;99.90;;;;;;5040219;28;20624;-85
2023/08/07 04:51:32;;;;;;;2.73;0.70;;;12.90;99.90;;;;;;5039884;28;20251;-86
2023/08/07 04:53:58;;;;;;;0.70;0.70;;;13.00;99.90;;;;;;5041970;28;20237;-81
2023/08/07 04:56:24;;;;;;;1.60;0.80;;;13.00;99.90;;;;;;5046916;28;20168;-81
2023/08/07 04:58:50;;;;;;;2.00;0.73;;;13.00;99.90;;;;;;5039257;28;20235;-82
2023/08/07 05:01:18;;;;;;;0.70;0.70;;;13.10;99.90;;;;;;5038548;28;20180;-77
2023/08/07 05:03:43;;;;;;;0.80;0.80;;;13.20;99.90;;;;;;5049319;28;20172;-77
2023/08/07 05:06:09;;;;;;;2.20;0.70;;;13.20;99.90;;;;;;5044398;28;20198;-81
2023/08/07 05:08:35;;;;;;;1.43;0.73;;;13.10;99.90;;;;;;5020969;28;20188;-79
2023/08/07 05:11:01;;;;;;;1.07;1.07;;;13.20;99.90;;;;;;5048496;28;20239;-82
2023/08/07 05:13:27;;;;;;;2.30;0.90;;;13.20;99.90;;;;;;5039811;28;20527;-78
2023/08/07 05:15:52;;;;;;;1.00;1.00;;;13.20;99.90;;;;;;5051301;28;20180;-77
2023/08/07 05:18:19;;;;;;;0.93;0.80;;;13.40;99.90;;;;;;5046053;28;20179;-83
2023/08/07 05:20:46;;;;;;;0.77;0.77;;;13.40;99.90;;;;;;5040883;28;20271;-80
2023/08/07 05:23:12;;;;;;;1.23;1.13;;;13.40;99.90;;;;;;5037335;28;20250;-81
2023/08/07 05:25:38;;;;;;;1.30;0.80;;;13.40;99.90;;;;;;5037475;28;20173;-79
2023/08/07 05:28:05;;;;;;;0.97;0.90;;;13.50;99.90;;;;;;5038850;28;20173;-81
2023/08/07 05:30:31;;;;;;;1.50;0.80;;;13.60;99.90;;;;;;5018832;28;20544;-82
2023/08/07 05:32:57;;;;;;;1.00;1.00;;;13.70;99.90;;;;;;5036917;28;20200;-82
2023/08/07 05:35:23;;;;;;;0.80;0.80;;;13.70;99.90;;;;;;5041492;28;20684;-82
2023/08/07 05:37:48;;;;;;;0.60;0.60;;;13.80;99.90;;;;;;5047860;28;20183;-81
2023/08/07 05:40:14;;;;;;;0.80;0.80;;;13.90;99.90;;;;;;5050623;28;20640;-83
2023/08/07 05:42:41;;;;;;;1.60;0.80;;;14.10;99.90;;;;;;5023671;28;20188;-78
2023/08/07 05:45:08;;;;;;;2.33;1.90;;;14.10;99.90;;;;;;5040741;28;20187;-83
2023/08/07 05:47:33;;;;;;;1.80;0.90;;;14.20;99.90;;;;;;5023436;28;20236;-82
2023/08/07 05:49:59;;;;;;;2.93;1.07;;;14.30;99.90;;;;;;5040971;28;20256;-78
2023/08/07 05:52:25;;;;;;;0.83;0.83;;;14.40;99.90;;;;;;5052996;28;20172;-80
2023/08/07 05:54:51;;;;;;;1.93;0.93;;;14.50;99.90;;;;;;5058093;28;20191;-80
2023/08/07 05:57:18;;;;;;;2.20;0.90;;;14.60;99.90;;;;;;5041499;28;20179;-83
2023/08/07 05:59:44;;;;;;;0.87;0.80;;;14.70;99.90;;;;;;5041244;28;20176;-82
2023/08/07 06:02:11;;;;;;;1.00;1.00;;;14.80;99.90;;;;;;5022206;28;20204;-84
2023/08/07 06:04:40;;;;;;;2.07;1.10;;;14.90;99.90;;;;;;5040415;28;20215;-83
2023/08/07 06:07:07;;;;;;;0.83;0.83;;;15.00;99.90;;;;;;5041257;28;20185;-85
2023/08/07 06:09:35;;;;;;;1.00;1.00;;;15.00;99.90;;;;;;5031982;28;20226;-81
2023/08/07 06:12:04;;;;;;;2.00;1.23;;;15.10;99.90;;;;;;5024885;28;20239;-83
2023/08/07 06:14:30;;;;;;;1.07;1.00;;;15.20;99.90;;;;;;5038201;28;20208;-83
2023/08/07 06:16:57;;;;;;;1.07;1.00;;;15.30;99.90;;;;;;5026486;28;20181;-81
2023/08/07 06:19:24;;;;;;;1.87;1.30;;;15.40;99.90;;;;;;5030282;28;20180;-83
2023/08/07 06:21:49;;;;;;;1.23;1.17;;;15.50;99.90;;;;;;5049909;28;20216;-82
2023/08/07 06:24:15;;;;;;;1.30;1.30;;;15.50;99.90;;;;;;5024077;28;20180;-81
2023/08/07 06:26:41;;;;;;;1.40;1.30;;;15.50;99.90;;;;;;5042881;28;20172;-80
2023/08/07 06:29:07;;;;;;;1.17;1.10;;;15.50;99.90;;;;;;5042254;28;20640;-85
2023/08/07 06:31:32;;;;;;;3.53;1.07;;;15.60;99.90;;;;;;5025885;28;20184;-82
2023/08/07 06:33:59;;;;;;;0.90;0.90;;;15.80;99.90;;;;;;5048683;28;20204;-81
2023/08/07 06:36:25;;;;;;;1.00;1.00;;;15.80;99.90;;;;;;5043826;28;20168;-80
2023/08/07 06:38:51;;;;;;;0.70;0.70;;;15.90;99.90;;;;;;5024208;28;20188;-83
2023/08/07 06:41:17;;;;;;;1.23;0.93;;;15.80;99.90;;;;;;5051639;28;20243;-82
2023/08/07 06:43:43;;;;;;;1.10;1.00;;;15.90;99.90;;;;;;5045930;28;20175;-83
2023/08/07 06:46:10;;;;;;;1.40;0.90;;;15.90;99.90;;;;;;5041090;28;20228;-80
2023/08/07 06:48:37;;;;;;;1.30;1.20;;;16.00;99.90;;;;;;5041815;28;20204;-82
2023/08/07 06:51:03;;;;;;;1.20;1.13;;;16.10;99.90;;;;;;5041586;28;20227;-82
2023/08/07 06:53:29;;;;;;;7.87;1.93;;;16.20;99.90;;;;;;5056882;28;20206;-79
2023/08/07 06:55:55;;;;;;;6.27;1.40;;;16.30;99.90;;;;;;5044190;28;20177;-80
2023/08/07 06:58:20;;;;;;;1.00;0.87;;;16.30;99.90;;;;;;5040741;28;20184;-83
2023/08/07 07:00:46;;;;;;;2.87;0.70;;;16.40;99.90;;;;;;5040616;28;20546;-80
2023/08/07 07:03:12;;;;;;;2.87;1.67;;;16.50;99.90;;;;;;5020909;28;20192;-81
2023/08/07 07:05:38;;;;;;;1.67;0.90;;;16.50;99.90;;;;;;5039356;28;20182;-82
2023/08/07 07:08:04;;;;;;;1.17;1.03;;;16.60;99.90;;;;;;5039488;28;20249;-84
2023/08/07 07:10:31;;;;;;;5.07;2.73;;;16.70;99.90;;;;;;5040730;28;20179;-80
2023/08/07 07:12:57;;;;;;;2.77;2.07;;;16.80;99.90;;;;;;5040952;28;20251;-83
2023/08/07 07:15:22;;;;;;;1.77;1.00;;;16.80;99.90;;;;;;5041267;28;20242;-82
2023/08/07 07:17:48;;;;;;;1.73;1.63;;;16.90;99.90;;;;;;5042249;28;20209;-82
2023/08/07 07:20:14;;;;;;;0.63;0.63;;;17.00;99.90;;;;;;5025609;28;20183;-82
2023/08/07 07:22:40;;;;;;;1.07;1.03;;;17.10;99.90;;;;;;5051848;28;20183;-83
2023/08/07 07:25:06;;;;;;;1.70;0.67;;;17.10;99.90;;;;;;5050944;28;20229;-82
2023/08/07 07:27:32;;;;;;;2.00;0.60;;;17.20;99.90;;;;;;5037478;28;20185;-84
2023/08/07 07:29:58;;;;;;;0.97;0.70;;;17.10;99.90;;;;;;5043165;28;20162;-83
2023/08/07 07:32:25;;;;;;;0.47;0.47;;;17.10;99.90;;;;;;5044270;28;20167;-84
2023/08/07 07:34:51;;;;;;;0.33;0.33;;;17.20;99.90;;;;;;5044006;28;20203;-83
2023/08/07 07:37:17;;;;;;;0.90;0.90;;;17.10;99.90;;;;;;5043984;28;20167;-84
2023/08/07 07:39:43;;;;;;;0.40;0.40;;;17.10;99.90;;;;;;5040793;28;20191;-84
2023/08/07 07:42:09;;;;;;;0.47;0.47;;;17.30;99.90;;;;;;5054459;28;20181;-84
2023/08/07 07:44:39;;;;;;;0.80;0.80;;;17.50;99.90;;;;;;5049035;28;20168;-84
2023/08/07 07:47:07;;;;;;;0.67;0.67;;;17.50;99.90;;;;;;5052115;28;20247;-80
2023/08/07 07:49:33;;;;;;;0.50;0.50;;;17.40;99.90;;;;;;5054383;28;20272;-76
2023/08/07 07:52:00;;;;;;;0.70;0.70;;;17.50;99.90;;;;;;5050049;28;20184;-79
2023/08/07 07:54:25;;;;;;;0.40;0.40;;;17.40;99.90;;;;;;5032392;28;20215;-77
2023/08/07 07:56:51;;;;;;;0.60;0.60;;;17.40;99.90;;;;;;5054536;28;20169;-79
2023/08/07 07:59:17;;;;;;;0.70;0.70;;;17.40;99.90;;;;;;5052414;28;20191;-80
2023/08/07 08:01:43;;;;;;;0.90;0.90;;;17.30;99.90;;;;;;5034057;28;20230;-80
2023/08/07 08:04:10;;;;;;;0.70;0.70;;;17.40;99.90;;;;;;5055383;28;20183;-79
2023/08/07 08:06:36;;;;;;;0.30;0.30;;;17.50;99.80;;;;;;5050519;28;20196;-78
2023/08/07 08:09:04;;;;;;;1.23;0.70;;;17.70;99.80;;;;;;5030060;28;20188;-77
2023/08/07 08:11:31;;;;;;;0.40;0.40;;;17.60;99.20;;;;;;5047398;28;20164;-80
2023/08/07 08:13:56;;;;;;;0.80;0.40;;;17.60;99.10;;;;;;5040788;28;20239;-78
2023/08/07 08:16:22;;;;;;;1.27;0.50;;;17.50;98.80;;;;;;5040364;28;20169;-76
2023/08/07 08:18:48;;;;;;;2.10;0.53;;;17.50;99.00;;;;;;5053736;28;20192;-76
2023/08/07 08:21:14;;;;;;;0.50;0.50;;;17.60;99.40;;;;;;5023288;28;20218;-80
2023/08/07 08:23:40;;;;;;;0.23;0.23;;;17.60;99.30;;;;;;5038812;28;20228;-78
2023/08/07 08:26:05;;;;;;;0.40;0.40;;;17.50;98.50;;;;;;5039125;28;20222;-82
2023/08/07 08:28:31;;;;;;;0.50;0.50;;;17.50;98.70;;;;;;5039812;28;20177;-82
2023/08/07 08:30:57;;;;;;;0.40;0.40;;;17.70;98.40;;;;;;5056774;28;20215;-83
2023/08/07 08:33:23;;;;;;;0.50;0.50;;;17.80;98.10;;;;;;5039083;28;20175;-83
2023/08/07 08:35:48;;;;;;;0.20;0.20;;;17.90;98.10;;;;;;5037235;28;20191;-80
2023/08/07 08:38:16;;;;;;;0.60;0.50;;;18.30;98.00;;;;;;5036644;28;20160;-79
2023/08/07 08:40:43;;;;;;;0.63;0.50;;;18.50;98.30;;;;;;5037488;28;20168;-78
2023/08/07 08:43:12;;;;;;;0.30;0.30;;;18.50;97.00;;;;;;5036715;28;20198;-80
2023/08/07 08:45:40;;;;;;;0.40;0.40;;;18.50;96.70;;;;;;5036191;28;20310;-82
2023/08/07 08:48:11;;;;;;;0.73;0.37;;;18.70;97.10;;;;;;5038515;28;20173;-76
2023/08/07 08:50:39;;;;;;;0.87;0.20;;;18.90;96.70;;;;;;5024700;28;20200;-77
2023/08/07 08:53:05;;;;;;;0.50;0.47;;;18.90;96.70;;;;;;5043493;28;20165;-81
2023/08/07 08:55:33;;;;;;;0.40;0.40;;;18.70;95.90;;;;;;5046764;28;20683;-83
2023/08/07 08:58:00;;;;;;;0.50;0.50;;;18.70;96.00;;;;;;5038244;28;20322;-78
2023/08/07 09:00:28;;;;;;;3.70;0.50;;;18.70;96.30;;;;;;5038058;28;20172;-81
2023/08/07 09:02:54;;;;;;;0.30;0.30;;;18.60;96.20;;;;;;5042802;28;20173;-78
2023/08/07 09:05:20;;;;;;;0.40;0.40;;;18.70;95.90;;;;;;5055923;28;20505;-79
2023/08/07 09:07:49;;;;;;;0.20;0.20;;;18.80;95.80;;;;;;5037655;28;20241;-81
2023/08/07 09:10:18;;;;;;;0.30;0.30;;;18.90;95.10;;;;;;5054310;28;20169;-81
2023/08/07 09:13:05;;;;;;;0.43;0.43;;;18.90;94.90;;;;;;5042075;28;20164;-75
2023/08/07 09:15:32;;;;;;;0.10;0.10;;;19.00;94.40;;;;;;5021300;28;20267;-83
2023/08/07 09:17:59;;;;;;;0.30;0.30;;;18.80;94.50;;;;;;5050144;28;20236;-79
2023/08/07 09:20:28;;;;;;;0.53;0.30;;;18.90;93.70;;;;;;5037339;28;20255;-81
2023/08/07 09:22:54;;;;;;;0.50;0.50;;;19.00;93.60;;;;;;5036114;28;20188;-79
2023/08/07 09:25:33;;;;;;;0.37;0.37;;;19.10;94.20;;;;;;5038138;28;20172;-79
2023/08/07 09:28:04;;;;;;;0.33;0.33;;;19.10;92.40;;;;;;5039780;28;20206;-81
2023/08/07 09:30:31;;;;;;;0.43;0.43;;;19.30;92.30;;;;;;5038634;28;20164;-79
2023/08/07 09:33:00;;;;;;;0.60;0.53;;;19.60;93.10;;;;;;5039991;28;20173;-81
2023/08/07 09:35:27;;;;;;;0.67;0.40;;;19.60;92.00;;;;;;5024863;28;20223;-81
2023/08/07 09:37:53;;;;;;;1.33;0.40;;;19.70;92.20;;;;;;5035108;28;20188;-79
2023/08/07 09:40:20;;;;;;;0.10;0.10;;;19.70;91.60;;;;;;5017855;28;20184;-78
2023/08/07 09:42:52;;;;;;;0.40;0.40;;;19.80;92.00;;;;;;5034281;28;20223;-79
2023/08/07 09:45:24;;;;;;;2.57;0.57;;;20.00;92.40;;;;;;5033786;28;20643;-83
2023/08/07 09:48:11;;;;;;;0.50;0.50;;;20.20;91.30;;;;;;5034523;28;20176;-81
2023/08/07 09:50:37;;;;;;;0.30;0.30;;;20.10;90.70;;;;;;5036947;28;20161;-82
2023/08/07 09:53:03;;;;;;;0.33;0.33;;;20.20;89.80;;;;;;5036107;28;20211;-83
2023/08/07 09:55:29;;;;;;;1.27;1.17;;;20.20;90.50;;;;;;5048959;28;20216;-79
2023/08/07 09:57:55;;;;;;;0.60;0.60;;;20.10;90.90;;;;;;5051312;28;20236;-81
2023/08/07 10:00:21;;;;;;;0.33;0.33;;;20.20;90.50;;;;;;5027148;28;20263;-80
2023/08/07 10:02:50;;;;;;;0.50;0.50;;;20.10;90.40;;;;;;5018587;28;20211;-82
2023/08/07 10:05:17;;;;;;;0.40;0.40;;;20.10;90.30;;;;;;5035903;28;20234;-83
2023/08/07 10:07:43;;;;;;;0.20;0.20;;;20.10;90.50;;;;;;5050942;28;20177;-78
2023/08/07 10:10:10;;;;;;;0.30;0.30;;;20.30;88.70;;;;;;5040061;28;20180;-82
2023/08/07 10:12:37;;;;;;;0.30;0.30;;;20.00;87.90;;;;;;5040786;28;20179;-81
2023/08/07 10:15:03;;;;;;;0.30;0.30;;;20.00;87.70;;;;;;5039126;28;20567;-81
2023/08/07 10:17:31;;;;;;;1.23;0.23;;;19.80;87.80;;;;;;5034266;28;20723;-81
2023/08/07 10:19:57;;;;;;;0.40;0.40;;;19.70;87.50;;;;;;5034162;28;20188;-79
2023/08/07 10:22:29;;;;;;;0.60;0.60;;;19.90;87.30;;;;;;5016387;28;20173;-82
2023/08/07 10:24:58;;;;;;;0.50;0.50;;;20.00;88.40;;;;;;5033311;28;20168;-81
2023/08/07 10:27:26;;;;;;;0.40;0.40;;;20.10;88.70;;;;;;5033717;28;20620;-81
2023/08/07 10:29:54;;;;;;;0.50;0.50;;;20.20;89.30;;;;;;5015878;28;20179;-80
2023/08/07 10:32:22;;;;;;;0.40;0.40;;;20.40;89.20;;;;;;5034412;28;20248;-83
2023/08/07 10:34:50;;;;;;;0.47;0.47;;;20.50;85.10;;;;;;5033856;28;20675;-82
2023/08/07 10:37:39;;;;;;;0.30;0.30;;;20.20;85.70;;;;;;5038795;28;20168;-77
2023/08/07 10:40:07;;;;;;;0.30;0.30;;;20.30;86.00;;;;;;5032073;28;20173;-76
2023/08/07 10:43:17;;;;;;;0.40;0.40;;;20.40;86.80;;;;;;5036516;28;20629;-78
2023/08/07 10:45:43;;;;;;;0.37;0.37;;;20.70;88.10;;;;;;4991605;28;20250;-78
2023/08/07 10:48:12;;;;;;;0.40;0.40;;;20.50;85.70;;;;;;5044530;28;20160;-81
2023/08/07 10:50:57;;;;;;;0.77;0.77;;;20.50;84.80;;;;;;5039392;28;20200;-75
2023/08/07 10:53:40;;;;;;;0.43;0.43;;;20.50;85.60;;;;;;5048377;28;20203;-76
2023/08/07 10:56:09;;;;;;;0.57;0.57;;;20.30;84.40;;;;;;5035258;28;20169;-76
2023/08/07 10:58:37;;;;;;;0.50;0.50;;;20.30;84.10;;;;;;5035311;28;20168;-76
2023/08/07 11:01:22;;;;;;;0.47;0.30;;;20.20;86.40;;;;;;5044696;28;20173;-76
2023/08/07 11:03:54;;;;;;;0.50;0.50;;;19.90;86.10;;;;;;5042156;28;20526;-79
2023/08/07 11:06:31;;;;;;;0.43;0.43;;;19.80;88.10;;;;;;5041596;28;20176;-81
2023/08/07 11:08:58;;;;;;;1.60;0.43;;;19.90;88.20;;;;;;5050437;28;20168;-84
2023/08/07 11:11:24;;;;;;;0.60;0.60;;;19.90;89.00;;;;;;5046298;28;20179;-84
2023/08/07 11:13:50;;;;;;;0.50;0.50;;;19.90;88.00;;;;;;5023261;28;20205;-81
2023/08/07 11:16:20;;;;;;;0.60;0.60;;;19.90;87.10;;;;;;5043592;28;20185;-80
2023/08/07 11:18:47;;;;;;;0.90;0.90;;;19.70;87.90;;;;;;5024150;28;20183;-84
2023/08/07 11:21:14;;;;;;;0.67;0.50;;;19.60;86.80;;;;;;5042128;28;20173;-83
2023/08/07 11:23:43;;;;;;;0.40;0.40;;;19.70;87.50;;;;;;5040502;28;20176;-80
2023/08/07 11:26:10;;;;;;;2.63;0.70;;;19.80;87.30;;;;;;5041727;28;20175;-82
2023/08/07 11:28:36;;;;;;;1.30;0.70;;;19.90;87.80;;;;;;5042258;28;20192;-85
2023/08/07 11:31:02;;;;;;;6.60;0.83;;;19.90;87.10;;;;;;5025958;28;20246;-80
2023/08/07 11:33:29;;;;;;;0.30;0.30;;;19.70;86.50;;;;;;5053708;28;20187;-80
2023/08/07 11:35:55;;;;;;;0.40;0.40;;;19.60;86.60;;;;;;5045784;28;20647;-82
2023/08/07 11:38:38;;;;;;;0.30;0.30;;;19.60;86.30;;;;;;5037979;28;20173;-83
2023/08/07 11:41:06;;;;;;;0.37;0.37;;;19.50;86.40;;;;;;5036868;28;20167;-84
2023/08/07 11:43:33;;;;;;;2.17;0.93;;;19.60;87.30;;;;;;5020033;28;20180;-82
2023/08/07 11:46:01;;;;;;;3.93;0.80;;;19.70;86.60;;;;;;5051195;28;20703;-78
2023/08/07 11:48:28;;;;;;;0.50;0.50;;;19.70;87.20;;;;;;5047958;28;20247;-82
2023/08/07 11:50:54;;;;;;;0.63;0.63;;;19.70;85.60;;;;;;5037605;28;20179;-81
2023/08/07 11:53:28;;;;;;;0.80;0.80;;;19.60;86.80;;;;;;5024499;28;20204;-81
2023/08/07 11:55:59;;;;;;;0.43;0.43;;;19.70;87.50;;;;;;5038588;28;20538;-82
2023/08/07 11:58:27;;;;;;;0.50;0.50;;;19.80;86.50;;;;;;5037022;28;20203;-82
2023/08/07 12:00:54;;;;;;;0.63;0.60;;;19.90;86.10;;;;;;5041703;28;20591;-78
2023/08/07 12:03:34;;;;;;;0.60;0.60;;;19.70;85.80;;;;;;5049302;28;20200;-82
2023/08/07 12:06:04;;;;;;;0.40;0.40;;;19.60;85.90;;;;;;5036882;28;20173;-84
2023/08/07 12:08:33;;;;;;;1.00;0.30;;;19.50;86.60;;;;;;5036872;28;20173;-80
2023/08/07 12:11:03;;;;;;;0.60;0.60;;;19.50;86.20;;;;;;5037305;28;20231;-84
2023/08/07 12:13:29;;;;;;;0.30;0.30;;;19.50;86.70;;;;;;5036888;28;20695;-83
2023/08/07 12:15:56;;;;;;;0.40;0.40;;;19.30;86.60;;;;;;5036477;28;20169;-84
2023/08/07 12:18:26;;;;;;;0.53;0.50;;;19.30;86.70;;;;;;5037114;28;20176;-84
2023/08/07 12:20:58;;;;;;;0.50;0.50;;;19.30;88.00;;;;;;5036739;28;20168;-84
2023/08/07 12:23:24;;;;;;;1.13;1.00;;;19.40;88.70;;;;;;5039151;28;20152;-83
2023/08/07 12:25:50;;;;;;;0.60;0.60;;;19.50;87.90;;;;;;5028608;28;20554;-83
2023/08/07 12:28:17;;;;;;;1.73;0.57;;;19.60;88.10;;;;;;5056203;28;20207;-84
2023/08/07 12:30:45;;;;;;;0.57;0.50;;;19.60;88.00;;;;;;5041077;28;20161;-83
2023/08/07 12:33:11;;;;;;;1.10;1.03;;;19.60;87.70;;;;;;5046785;28;20172;-84
2023/08/07 12:35:37;;;;;;;0.43;0.43;;;19.70;88.00;;;;;;5021749;28;20270;-85
2023/08/07 12:38:05;;;;;;;1.03;0.93;;;19.80;87.10;;;;;;5037620;28;20169;-83
2023/08/07 12:40:31;;;;;;;0.70;0.70;;;19.80;88.70;;;;;;5020473;28;20186;-84
2023/08/07 12:42:58;;;;;;;0.70;0.70;;;19.90;87.60;;;;;;5019623;28;20632;-85
2023/08/07 12:45:24;;;;;;;0.90;0.73;;;20.00;87.20;;;;;;5039174;28;20173;-82
2023/08/07 12:47:50;;;;;;;0.70;0.70;;;20.10;89.30;;;;;;5030821;28;20249;-81
2023/08/07 12:50:16;;;;;;;0.87;0.87;;;20.20;89.30;;;;;;5043569;28;20196;-84